sensor_id;sensor_type;location;lat;lon;timestamp;temperature;humidity
30001;DHT22;16845;48.670;9.000;2023-02-11T00:01:26;-1.80;99.90
30001;DHT22;16845;48.670;9.000;2023-02-11T00:03:54;-1.80;99.90
30001;DHT22;16845;48.670;9.000;2023-02-11T00:06:23;-1.80;99.90
30001;DHT22;16845;48.670;9.000;2023-02-11T00:08:53;-1.80;99.90
30001;DHT22;16845;48.670;9.000;2023-02-11T00:11:23;-1.90;99.90
30001;DHT22;16845;48.670;9.000;2023-02-11T00:13:52;-1.90;99.90
30001;DHT22;16845;48.670;9.000;2023-02-11T00:16:20;-1.90;99.90
30001;DHT22;16845;48.670;9.000;2023-02-11T00:18:48;-1.90;99.90
30001;DHT22;16845;48.670;9.000;2023-02-11T00:21:21;-1.90;99.90
30001;DHT22;16845;48.670;9.000;2023-02-11T00:23:49;-1.90;99.90
30001;DHT22;16845;48.670;9.000;2023-02-11T00:26:20;-1.90;99.90
30001;DHT22;16845;48.670;9.000;2023-02-11T00:28:49;-2.00;99.90
30001;DHT22;16845;48.670;9.000;2023-02-11T00:31:19;-1.90;99.90
30001;DHT22;16845;48.670;9.000;2023-02-11T00:33:48;-2.00;99.90
30001;DHT22;16845;48.670;9.000;2023-02-11T00:36:18;-2.00;99.90
30001;DHT22;16845;48.670;9.000;2023-02-11T00:38:47;-1.90;99.90
30001;DHT22;16845;48.670;9.000;2023-02-11T00:41:16;-1.90;99.90
30001;DHT22;16845;48.670;9.000;2023-02-11T00:43:46;-1.80;99.90
30001;DHT22;16845;48.670;9.000;2023-02-11T00:46:15;-1.80;99.90
30001;DHT22;16845;48.670;9.000;2023-02-11T00:48:43;-1.80;99.90
30001;DHT22;16845;48.670;9.000;2023-02-11T00:51:11;-1.80;99.90
30001;DHT22;16845;48.670;9.000;2023-02-11T00:53:39;-1.70;99.90
30001;DHT22;16845;48.670;9.000;2023-02-11T00:56:07;-1.60;99.90
30001;DHT22;16845;48.670;9.000;2023-02-11T00:58:35;-1.70;99.90
30001;DHT22;16845;48.670;9.000;2023-02-11T01:01:05;-1.70;99.90
30001;DHT22;16845;48.670;9.000;2023-02-11T01:03:35;-1.80;99.90
30001;DHT22;16845;48.670;9.000;2023-02-11T01:06:03;-1.80;99.90
30001;DHT22;16845;48.670;9.000;2023-02-11T01:08:31;-1.80;99.90
30001;DHT22;16845;48.670;9.000;2023-02-11T01:11:01;-1.90;99.90
30001;DHT22;16845;48.670;9.000;2023-02-11T01:13:32;-1.90;99.90
30001;DHT22;16845;48.670;9.000;2023-02-11T01:16:00;-1.90;99.90
30001;DHT22;16845;48.670;9.000;2023-02-11T01:18:30;-2.00;99.90
30001;DHT22;16845;48.670;9.000;2023-02-11T01:20:58;-2.00;99.90
30001;DHT22;16845;48.670;9.000;2023-02-11T01:23:26;-2.00;99.90
30001;DHT22;16845;48.670;9.000;2023-02-11T01:25:54;-2.00;99.90
30001;DHT22;16845;48.670;9.000;2023-02-11T01:28:23;-2.10;99.90
30001;DHT22;16845;48.670;9.000;2023-02-11T01:30:52;-2.10;99.90
30001;DHT22;16845;48.670;9.000;2023-02-11T01:33:21;-2.00;99.90
30001;DHT22;16845;48.670;9.000;2023-02-11T01:35:50;-2.00;99.90
30001;DHT22;16845;48.670;9.000;2023-02-11T01:38:20;-2.00;99.90
30001;DHT22;16845;48.670;9.000;2023-02-11T01:40:50;-2.00;99.90
30001;DHT22;16845;48.670;9.000;2023-02-11T01:43:19;-1.60;99.90
30001;DHT22;16845;48.670;9.000;2023-02-11T01:46:06;-1.20;99.90
30001;DHT22;16845;48.670;9.000;2023-02-11T01:48:42;-0.90;99.90
30001;DHT22;16845;48.670;9.000;2023-02-11T01:51:16;-0.80;99.90
30001;DHT22;16845;48.670;9.000;2023-02-11T01:53:45;-0.60;99.90
30001;DHT22;16845;48.670;9.000;2023-02-11T01:56:34;-0.50;99.90
30001;DHT22;16845;48.670;9.000;2023-02-11T01:59:25;-0.50;99.90
30001;DHT22;16845;48.670;9.000;2023-02-11T02:01:57;-0.40;99.90
30001;DHT22;16845;48.670;9.000;2023-02-11T02:04:30;-0.40;99.90
30001;DHT22;16845;48.670;9.000;2023-02-11T02:07:04;-0.50;99.90
30001;DHT22;16845;48.670;9.000;2023-02-11T02:09:36;-0.60;99.90
30001;DHT22;16845;48.670;9.000;2023-02-11T02:12:06;-0.70;99.90
30001;DHT22;16845;48.670;9.000;2023-02-11T02:14:37;-0.90;99.90
30001;DHT22;16845;48.670;9.000;2023-02-11T02:17:05;-1.20;99.90
30001;DHT22;16845;48.670;9.000;2023-02-11T02:23:21;-1.40;99.90
30001;DHT22;16845;48.670;9.000;2023-02-11T02:26:30;-1.60;99.90
30001;DHT22;16845;48.670;9.000;2023-02-11T02:29:27;-1.60;99.90
30001;DHT22;16845;48.670;9.000;2023-02-11T02:35:09;-1.80;99.90
30001;DHT22;16845;48.670;9.000;2023-02-11T02:37:42;-1.90;99.90
30001;DHT22;16845;48.670;9.000;2023-02-11T02:40:17;-1.90;99.90
30001;DHT22;16845;48.670;9.000;2023-02-11T02:42:47;-1.90;99.90
30001;DHT22;16845;48.670;9.000;2023-02-11T02:45:16;-2.00;99.90
30001;DHT22;16845;48.670;9.000;2023-02-11T02:47:44;-1.90;99.90
30001;DHT22;16845;48.670;9.000;2023-02-11T02:50:15;-1.80;99.90
30001;DHT22;16845;48.670;9.000;2023-02-11T02:52:52;-1.70;99.90
30001;DHT22;16845;48.670;9.000;2023-02-11T02:55:30;-1.70;99.90
30001;DHT22;16845;48.670;9.000;2023-02-11T02:58:38;-1.70;99.90
30001;DHT22;16845;48.670;9.000;2023-02-11T03:01:12;-1.70;99.90
30001;DHT22;16845;48.670;9.000;2023-02-11T03:03:47;-1.80;99.90
30001;DHT22;16845;48.670;9.000;2023-02-11T03:06:23;-1.80;99.90
30001;DHT22;16845;48.670;9.000;2023-02-11T03:08:57;-1.80;99.90
30001;DHT22;16845;48.670;9.000;2023-02-11T03:11:28;-1.90;99.90
30001;DHT22;16845;48.670;9.000;2023-02-11T03:13:57;-1.90;99.90
30001;DHT22;16845;48.670;9.000;2023-02-11T03:16:28;-1.90;99.90
30001;DHT22;16845;48.670;9.000;2023-02-11T03:19:04;-2.00;99.90
30001;DHT22;16845;48.670;9.000;2023-02-11T03:21:36;-2.00;99.90
30001;DHT22;16845;48.670;9.000;2023-02-11T03:24:08;-1.90;99.90
30001;DHT22;16845;48.670;9.000;2023-02-11T03:26:40;-1.90;99.90
30001;DHT22;16845;48.670;9.000;2023-02-11T03:29:14;-1.90;99.90
30001;DHT22;16845;48.670;9.000;2023-02-11T03:31:51;-1.80;99.90
30001;DHT22;16845;48.670;9.000;2023-02-11T03:34:22;-1.70;99.90
30001;DHT22;16845;48.670;9.000;2023-02-11T03:36:57;-1.70;99.90
30001;DHT22;16845;48.670;9.000;2023-02-11T03:39:32;-1.70;99.90
30001;DHT22;16845;48.670;9.000;2023-02-11T03:42:02;-1.80;99.90
30001;DHT22;16845;48.670;9.000;2023-02-11T03:44:46;-1.90;99.90
30001;DHT22;16845;48.670;9.000;2023-02-11T03:47:17;-1.90;99.90
30001;DHT22;16845;48.670;9.000;2023-02-11T03:49:49;-1.90;99.90
30001;DHT22;16845;48.670;9.000;2023-02-11T03:52:21;-1.70;99.90
30001;DHT22;16845;48.670;9.000;2023-02-11T03:54:53;-1.50;99.90
30001;DHT22;16845;48.670;9.000;2023-02-11T03:57:22;-1.40;99.90
30001;DHT22;16845;48.670;9.000;2023-02-11T03:59:54;-1.30;99.90
30001;DHT22;16845;48.670;9.000;2023-02-11T04:02:25;-1.20;99.90
30001;DHT22;16845;48.670;9.000;2023-02-11T04:04:55;-1.10;99.90
30001;DHT22;16845;48.670;9.000;2023-02-11T04:07:25;-1.20;99.90
30001;DHT22;16845;48.670;9.000;2023-02-11T04:09:53;-1.30;99.90
30001;DHT22;16845;48.670;9.000;2023-02-11T04:12:21;-1.40;99.90
30001;DHT22;16845;48.670;9.000;2023-02-11T04:14:49;-1.40;99.90
30001;DHT22;16845;48.670;9.000;2023-02-11T04:17:17;-1.50;99.90
30001;DHT22;16845;48.670;9.000;2023-02-11T04:19:45;-1.60;99.90
30001;DHT22;16845;48.670;9.000;2023-02-11T04:22:13;-1.60;99.90
30001;DHT22;16845;48.670;9.000;2023-02-11T04:24:42;-1.50;99.90
30001;DHT22;16845;48.670;9.000;2023-02-11T04:27:10;-1.40;99.90
30001;DHT22;16845;48.670;9.000;2023-02-11T04:29:38;-1.30;99.90
30001;DHT22;16845;48.670;9.000;2023-02-11T04:32:06;-1.20;99.90
30001;DHT22;16845;48.670;9.000;2023-02-11T04:34:34;-1.10;99.90
30001;DHT22;16845;48.670;9.000;2023-02-11T04:37:02;-1.00;99.90
30001;DHT22;16845;48.670;9.000;2023-02-11T04:39:30;-0.90;99.90
30001;DHT22;16845;48.670;9.000;2023-02-11T04:41:59;-1.00;99.90
30001;DHT22;16845;48.670;9.000;2023-02-11T04:44:27;-1.00;99.90
30001;DHT22;16845;48.670;9.000;2023-02-11T04:46:55;-1.00;99.90
30001;DHT22;16845;48.670;9.000;2023-02-11T04:49:23;-1.10;99.90
30001;DHT22;16845;48.670;9.000;2023-02-11T04:51:51;-1.10;99.90
30001;DHT22;16845;48.670;9.000;2023-02-11T04:54:19;-1.00;99.90
30001;DHT22;16845;48.670;9.000;2023-02-11T04:56:47;-0.90;99.90
30001;DHT22;16845;48.670;9.000;2023-02-11T04:59:18;-0.90;99.90
30001;DHT22;16845;48.670;9.000;2023-02-11T05:01:46;-0.70;99.90
30001;DHT22;16845;48.670;9.000;2023-02-11T05:04:13;-0.70;99.90
30001;DHT22;16845;48.670;9.000;2023-02-11T05:06:41;-0.60;99.90
30001;DHT22;16845;48.670;9.000;2023-02-11T05:09:10;-0.60;99.90
30001;DHT22;16845;48.670;9.000;2023-02-11T05:11:38;-0.40;99.90
30001;DHT22;16845;48.670;9.000;2023-02-11T05:14:06;-0.30;99.90
30001;DHT22;16845;48.670;9.000;2023-02-11T05:16:36;-0.20;99.90
30001;DHT22;16845;48.670;9.000;2023-02-11T05:19:04;0.00;99.90
30001;DHT22;16845;48.670;9.000;2023-02-11T05:21:31;0.10;99.90
30001;DHT22;16845;48.670;9.000;2023-02-11T05:23:59;0.30;99.90
30001;DHT22;16845;48.670;9.000;2023-02-11T05:26:27;0.40;99.90
30001;DHT22;16845;48.670;9.000;2023-02-11T05:28:55;0.50;99.90
30001;DHT22;16845;48.670;9.000;2023-02-11T05:31:23;0.50;99.90
30001;DHT22;16845;48.670;9.000;2023-02-11T05:33:53;0.50;99.90
30001;DHT22;16845;48.670;9.000;2023-02-11T05:36:20;0.40;99.90
30001;DHT22;16845;48.670;9.000;2023-02-11T05:38:48;0.40;99.90
30001;DHT22;16845;48.670;9.000;2023-02-11T05:41:17;0.40;99.90
30001;DHT22;16845;48.670;9.000;2023-02-11T05:43:46;0.30;99.90
30001;DHT22;16845;48.670;9.000;2023-02-11T05:46:15;0.40;99.90
30001;DHT22;16845;48.670;9.000;2023-02-11T05:48:43;0.40;99.90
30001;DHT22;16845;48.670;9.000;2023-02-11T05:51:13;0.40;99.90
30001;DHT22;16845;48.670;9.000;2023-02-11T05:53:41;0.40;99.90
30001;DHT22;16845;48.670;9.000;2023-02-11T05:56:09;0.20;99.90
30001;DHT22;16845;48.670;9.000;2023-02-11T05:58:37;0.20;99.90
30001;DHT22;16845;48.670;9.000;2023-02-11T06:01:05;0.30;99.90
30001;DHT22;16845;48.670;9.000;2023-02-11T06:03:33;0.30;99.90
30001;DHT22;16845;48.670;9.000;2023-02-11T06:06:01;0.20;99.90
30001;DHT22;16845;48.670;9.000;2023-02-11T06:08:30;0.20;99.90
30001;DHT22;16845;48.670;9.000;2023-02-11T06:10:58;0.20;99.90
30001;DHT22;16845;48.670;9.000;2023-02-11T06:13:26;0.20;99.90
30001;DHT22;16845;48.670;9.000;2023-02-11T06:15:57;0.30;99.90
30001;DHT22;16845;48.670;9.000;2023-02-11T06:18:26;0.30;99.90
30001;DHT22;16845;48.670;9.000;2023-02-11T06:20:54;0.20;99.90
30001;DHT22;16845;48.670;9.000;2023-02-11T06:23:22;0.20;99.90
30001;DHT22;16845;48.670;9.000;2023-02-11T06:25:52;0.20;99.90
30001;DHT22;16845;48.670;9.000;2023-02-11T06:28:20;0.10;99.90
30001;DHT22;16845;48.670;9.000;2023-02-11T06:30:48;0.20;99.90
30001;DHT22;16845;48.670;9.000;2023-02-11T06:33:16;0.20;99.90
30001;DHT22;16845;48.670;9.000;2023-02-11T06:35:44;0.20;99.90
30001;DHT22;16845;48.670;9.000;2023-02-11T06:38:12;0.20;99.90
30001;DHT22;16845;48.670;9.000;2023-02-11T06:40:40;0.20;99.90
30001;DHT22;16845;48.670;9.000;2023-02-11T06:43:09;0.30;99.90
30001;DHT22;16845;48.670;9.000;2023-02-11T06:45:37;0.40;99.90
30001;DHT22;16845;48.670;9.000;2023-02-11T06:48:05;0.40;99.90
30001;DHT22;16845;48.670;9.000;2023-02-11T06:50:33;0.40;99.90
30001;DHT22;16845;48.670;9.000;2023-02-11T06:53:01;0.40;99.90
30001;DHT22;16845;48.670;9.000;2023-02-11T06:55:29;0.40;99.90
30001;DHT22;16845;48.670;9.000;2023-02-11T06:57:57;0.50;99.90
30001;DHT22;16845;48.670;9.000;2023-02-11T07:00:26;0.40;99.90
30001;DHT22;16845;48.670;9.000;2023-02-11T07:02:54;0.30;99.90
30001;DHT22;16845;48.670;9.000;2023-02-11T07:05:22;0.30;99.90
30001;DHT22;16845;48.670;9.000;2023-02-11T07:07:50;0.20;99.90
30001;DHT22;16845;48.670;9.000;2023-02-11T07:10:18;0.20;99.90
30001;DHT22;16845;48.670;9.000;2023-02-11T07:12:46;0.30;99.90
30001;DHT22;16845;48.670;9.000;2023-02-11T07:15:14;0.30;99.90
30001;DHT22;16845;48.670;9.000;2023-02-11T07:17:43;0.40;99.90
30001;DHT22;16845;48.670;9.000;2023-02-11T07:20:11;0.50;99.90
30001;DHT22;16845;48.670;9.000;2023-02-11T07:22:40;0.50;99.90
30001;DHT22;16845;48.670;9.000;2023-02-11T07:25:08;0.70;99.90
30001;DHT22;16845;48.670;9.000;2023-02-11T07:27:36;0.70;99.90
30001;DHT22;16845;48.670;9.000;2023-02-11T07:30:05;0.80;99.90
30001;DHT22;16845;48.670;9.000;2023-02-11T07:32:33;0.80;99.90
30001;DHT22;16845;48.670;9.000;2023-02-11T07:35:02;0.80;99.90
30001;DHT22;16845;48.670;9.000;2023-02-11T07:37:32;0.70;99.90
30001;DHT22;16845;48.670;9.000;2023-02-11T07:40:00;0.70;99.90
30001;DHT22;16845;48.670;9.000;2023-02-11T07:42:28;0.80;99.90
30001;DHT22;16845;48.670;9.000;2023-02-11T07:44:56;0.90;99.90
30001;DHT22;16845;48.670;9.000;2023-02-11T07:47:24;0.90;99.90
30001;DHT22;16845;48.670;9.000;2023-02-11T07:49:52;0.90;99.90
30001;DHT22;16845;48.670;9.000;2023-02-11T07:52:23;0.90;99.90
30001;DHT22;16845;48.670;9.000;2023-02-11T07:54:51;1.00;99.90
30001;DHT22;16845;48.670;9.000;2023-02-11T07:57:19;1.10;99.90
30001;DHT22;16845;48.670;9.000;2023-02-11T07:59:47;1.20;99.90
30001;DHT22;16845;48.670;9.000;2023-02-11T08:02:15;1.50;99.90
30001;DHT22;16845;48.670;9.000;2023-02-11T08:04:44;1.60;99.90
30001;DHT22;16845;48.670;9.000;2023-02-11T08:07:14;1.70;99.90
30001;DHT22;16845;48.670;9.000;2023-02-11T08:09:43;1.90;99.90
30001;DHT22;16845;48.670;9.000;2023-02-11T08:12:11;2.10;99.90
30001;DHT22;16845;48.670;9.000;2023-02-11T08:14:39;2.20;99.90
30001;DHT22;16845;48.670;9.000;2023-02-11T08:17:07;2.20;99.90
30001;DHT22;16845;48.670;9.000;2023-02-11T08:19:35;2.10;99.90
30001;DHT22;16845;48.670;9.000;2023-02-11T08:22:03;2.00;99.90
30001;DHT22;16845;48.670;9.000;2023-02-11T08:24:31;2.00;99.90
30001;DHT22;16845;48.670;9.000;2023-02-11T08:27:00;2.00;99.90
30001;DHT22;16845;48.670;9.000;2023-02-11T08:29:28;2.10;99.90
30001;DHT22;16845;48.670;9.000;2023-02-11T08:31:56;2.20;99.90
30001;DHT22;16845;48.670;9.000;2023-02-11T08:34:24;2.40;99.90
30001;DHT22;16845;48.670;9.000;2023-02-11T08:36:52;2.50;99.90
30001;DHT22;16845;48.670;9.000;2023-02-11T08:39:21;2.60;99.90
30001;DHT22;16845;48.670;9.000;2023-02-11T08:41:51;2.70;99.90
30001;DHT22;16845;48.670;9.000;2023-02-11T08:44:21;2.90;99.90
30001;DHT22;16845;48.670;9.000;2023-02-11T08:46:50;2.90;99.90
30001;DHT22;16845;48.670;9.000;2023-02-11T08:49:18;3.00;99.90
30001;DHT22;16845;48.670;9.000;2023-02-11T08:51:47;3.20;99.90
30001;DHT22;16845;48.670;9.000;2023-02-11T08:54:15;3.60;99.90
30001;DHT22;16845;48.670;9.000;2023-02-11T08:56:43;3.70;99.90
30001;DHT22;16845;48.670;9.000;2023-02-11T08:59:13;3.80;99.90
30001;DHT22;16845;48.670;9.000;2023-02-11T09:01:44;3.90;99.90
30001;DHT22;16845;48.670;9.000;2023-02-11T09:04:13;4.20;99.90
30001;DHT22;16845;48.670;9.000;2023-02-11T09:06:41;4.30;99.90
30001;DHT22;16845;48.670;9.000;2023-02-11T09:09:10;4.40;99.90
30001;DHT22;16845;48.670;9.000;2023-02-11T09:11:40;4.50;99.90
30001;DHT22;16845;48.670;9.000;2023-02-11T09:14:15;4.50;99.90
30001;DHT22;16845;48.670;9.000;2023-02-11T09:16:45;4.40;99.90
30001;DHT22;16845;48.670;9.000;2023-02-11T09:19:13;4.60;99.90
30001;DHT22;16845;48.670;9.000;2023-02-11T09:21:41;4.70;99.90
30001;DHT22;16845;48.670;9.000;2023-02-11T09:24:09;5.00;99.90
30001;DHT22;16845;48.670;9.000;2023-02-11T09:26:37;5.30;99.90
30001;DHT22;16845;48.670;9.000;2023-02-11T09:29:08;5.30;99.90
30001;DHT22;16845;48.670;9.000;2023-02-11T09:31:36;5.80;99.90
30001;DHT22;16845;48.670;9.000;2023-02-11T09:34:06;6.30;99.90
30001;DHT22;16845;48.670;9.000;2023-02-11T09:36:37;7.20;99.90
30001;DHT22;16845;48.670;9.000;2023-02-11T09:39:07;7.70;99.90
30001;DHT22;16845;48.670;9.000;2023-02-11T09:41:47;7.90;99.90
30001;DHT22;16845;48.670;9.000;2023-02-11T09:44:19;7.90;99.90
30001;DHT22;16845;48.670;9.000;2023-02-11T09:46:53;7.40;99.90
30001;DHT22;16845;48.670;9.000;2023-02-11T09:49:29;7.00;99.90
30001;DHT22;16845;48.670;9.000;2023-02-11T09:52:03;6.90;99.90
30001;DHT22;16845;48.670;9.000;2023-02-11T09:54:36;6.90;99.90
30001;DHT22;16845;48.670;9.000;2023-02-11T09:57:08;7.00;99.90
30001;DHT22;16845;48.670;9.000;2023-02-11T09:59:52;7.30;99.90
30001;DHT22;16845;48.670;9.000;2023-02-11T10:02:25;7.90;99.90
30001;DHT22;16845;48.670;9.000;2023-02-11T10:05:12;8.40;99.90
30001;DHT22;16845;48.670;9.000;2023-02-11T10:07:49;8.40;99.90
30001;DHT22;16845;48.670;9.000;2023-02-11T10:10:30;8.40;99.90
30001;DHT22;16845;48.670;9.000;2023-02-11T10:13:20;8.60;99.90
30001;DHT22;16845;48.670;9.000;2023-02-11T10:16:00;9.00;99.90
30001;DHT22;16845;48.670;9.000;2023-02-11T10:19:15;9.50;99.90
30001;DHT22;16845;48.670;9.000;2023-02-11T10:21:53;9.40;99.90
30001;DHT22;16845;48.670;9.000;2023-02-11T10:24:24;10.00;99.90
30001;DHT22;16845;48.670;9.000;2023-02-11T10:26:54;10.60;99.90
30001;DHT22;16845;48.670;9.000;2023-02-11T10:29:33;11.40;99.90
30001;DHT22;16845;48.670;9.000;2023-02-11T10:32:06;11.90;99.70
30001;DHT22;16845;48.670;9.000;2023-02-11T10:34:40;12.50;98.10
30001;DHT22;16845;48.670;9.000;2023-02-11T10:37:11;13.10;97.40
30001;DHT22;16845;48.670;9.000;2023-02-11T10:39:40;13.50;96.10
30001;DHT22;16845;48.670;9.000;2023-02-11T10:42:10;14.00;95.20
30001;DHT22;16845;48.670;9.000;2023-02-11T10:44:41;14.30;94.60
30001;DHT22;16845;48.670;9.000;2023-02-11T10:47:16;13.90;95.00
30001;DHT22;16845;48.670;9.000;2023-02-11T10:49:45;14.70;93.50
30001;DHT22;16845;48.670;9.000;2023-02-11T10:52:19;15.20;91.60
30001;DHT22;16845;48.670;9.000;2023-02-11T10:54:55;14.30;92.80
30001;DHT22;16845;48.670;9.000;2023-02-11T10:57:27;14.70;92.20
30001;DHT22;16845;48.670;9.000;2023-02-11T10:59:59;15.30;90.80
30001;DHT22;16845;48.670;9.000;2023-02-11T11:02:30;14.70;91.50
30001;DHT22;16845;48.670;9.000;2023-02-11T11:05:03;15.00;91.30
30001;DHT22;16845;48.670;9.000;2023-02-11T11:07:34;14.60;91.00
30001;DHT22;16845;48.670;9.000;2023-02-11T11:10:07;14.40;91.60
30001;DHT22;16845;48.670;9.000;2023-02-11T11:12:38;14.80;91.40
30001;DHT22;16845;48.670;9.000;2023-02-11T11:15:16;14.80;90.90
30001;DHT22;16845;48.670;9.000;2023-02-11T11:17:45;14.30;91.30
30001;DHT22;16845;48.670;9.000;2023-02-11T11:20:23;14.10;91.60
30001;DHT22;16845;48.670;9.000;2023-02-11T11:23:10;13.20;92.00
30001;DHT22;16845;48.670;9.000;2023-02-11T11:25:40;14.30;91.00
30001;DHT22;16845;48.670;9.000;2023-02-11T11:28:19;15.00;90.10
30001;DHT22;16845;48.670;9.000;2023-02-11T11:30:47;15.80;90.10
30001;DHT22;16845;48.670;9.000;2023-02-11T11:33:20;16.40;88.50
30001;DHT22;16845;48.670;9.000;2023-02-11T11:36:00;16.80;87.50
30001;DHT22;16845;48.670;9.000;2023-02-11T11:38:31;16.00;87.50
30001;DHT22;16845;48.670;9.000;2023-02-11T11:41:20;16.30;86.90
30001;DHT22;16845;48.670;9.000;2023-02-11T11:44:03;15.40;87.30
30001;DHT22;16845;48.670;9.000;2023-02-11T11:46:43;15.20;88.50
30001;DHT22;16845;48.670;9.000;2023-02-11T11:49:22;16.60;86.80
30001;DHT22;16845;48.670;9.000;2023-02-11T11:51:57;17.40;84.90
30001;DHT22;16845;48.670;9.000;2023-02-11T11:54:29;17.50;81.70
30001;DHT22;16845;48.670;9.000;2023-02-11T11:57:01;17.70;82.10
30001;DHT22;16845;48.670;9.000;2023-02-11T11:59:32;18.60;79.80
30001;DHT22;16845;48.670;9.000;2023-02-11T12:02:26;17.90;79.90
30001;DHT22;16845;48.670;9.000;2023-02-11T12:05:04;17.50;80.20
30001;DHT22;16845;48.670;9.000;2023-02-11T12:07:45;17.50;79.60
30001;DHT22;16845;48.670;9.000;2023-02-11T12:10:33;18.10;78.30
30001;DHT22;16845;48.670;9.000;2023-02-11T12:13:15;17.90;77.80
30001;DHT22;16845;48.670;9.000;2023-02-11T12:15:53;17.00;79.50
30001;DHT22;16845;48.670;9.000;2023-02-11T12:18:42;15.70;80.50
30001;DHT22;16845;48.670;9.000;2023-02-11T12:21:27;15.30;81.50
30001;DHT22;16845;48.670;9.000;2023-02-11T12:24:13;14.80;82.50
30001;DHT22;16845;48.670;9.000;2023-02-11T12:26:50;15.90;82.40
30001;DHT22;16845;48.670;9.000;2023-02-11T12:29:27;16.40;81.60
30001;DHT22;16845;48.670;9.000;2023-02-11T12:32:08;17.20;80.40
30001;DHT22;16845;48.670;9.000;2023-02-11T12:37:46;16.80;79.20
30001;DHT22;16845;48.670;9.000;2023-02-11T12:40:23;16.90;79.00
30001;DHT22;16845;48.670;9.000;2023-02-11T12:43:04;16.30;79.10
30001;DHT22;16845;48.670;9.000;2023-02-11T12:45:48;17.00;80.10
30001;DHT22;16845;48.670;9.000;2023-02-11T12:48:36;18.20;77.40
30001;DHT22;16845;48.670;9.000;2023-02-11T12:51:13;18.80;76.30
30001;DHT22;16845;48.670;9.000;2023-02-11T12:53:57;19.80;74.40
30001;DHT22;16845;48.670;9.000;2023-02-11T12:56:34;20.10;73.30
30001;DHT22;16845;48.670;9.000;2023-02-11T12:59:10;22.60;68.20
30001;DHT22;16845;48.670;9.000;2023-02-11T13:01:42;22.90;65.30
30001;DHT22;16845;48.670;9.000;2023-02-11T13:04:15;22.00;66.30
30001;DHT22;16845;48.670;9.000;2023-02-11T13:06:47;22.20;65.20
30001;DHT22;16845;48.670;9.000;2023-02-11T13:09:18;21.70;64.70
30001;DHT22;16845;48.670;9.000;2023-02-11T13:11:50;22.90;63.60
30001;DHT22;16845;48.670;9.000;2023-02-11T13:14:27;22.50;61.80
30001;DHT22;16845;48.670;9.000;2023-02-11T13:16:56;21.30;62.90
30001;DHT22;16845;48.670;9.000;2023-02-11T13:19:29;21.10;62.60
30001;DHT22;16845;48.670;9.000;2023-02-11T13:22:06;22.70;63.50
30001;DHT22;16845;48.670;9.000;2023-02-11T13:24:42;21.30;64.60
30001;DHT22;16845;48.670;9.000;2023-02-11T13:27:20;23.10;63.50
30001;DHT22;16845;48.670;9.000;2023-02-11T13:30:17;24.80;59.10
30001;DHT22;16845;48.670;9.000;2023-02-11T13:33:17;25.10;58.90
30001;DHT22;16845;48.670;9.000;2023-02-11T13:35:48;23.40;57.80
30001;DHT22;16845;48.670;9.000;2023-02-11T13:38:36;22.60;59.50
30001;DHT22;16845;48.670;9.000;2023-02-11T13:41:17;23.50;58.80
30001;DHT22;16845;48.670;9.000;2023-02-11T13:44:00;23.70;58.10
30001;DHT22;16845;48.670;9.000;2023-02-11T13:46:48;24.30;58.00
30001;DHT22;16845;48.670;9.000;2023-02-11T13:49:21;24.90;57.10
30001;DHT22;16845;48.670;9.000;2023-02-11T13:51:50;24.90;56.60
30001;DHT22;16845;48.670;9.000;2023-02-11T13:54:23;24.30;56.60
30001;DHT22;16845;48.670;9.000;2023-02-11T13:57:22;22.80;58.20
30001;DHT22;16845;48.670;9.000;2023-02-11T13:59:54;21.30;60.30
30001;DHT22;16845;48.670;9.000;2023-02-11T14:02:29;19.60;62.30
30001;DHT22;16845;48.670;9.000;2023-02-11T14:05:28;19.10;64.10
30001;DHT22;16845;48.670;9.000;2023-02-11T14:08:22;17.90;67.20
30001;DHT22;16845;48.670;9.000;2023-02-11T14:14:15;15.40;71.60
30001;DHT22;16845;48.670;9.000;2023-02-11T14:19:50;14.70;73.70
30001;DHT22;16845;48.670;9.000;2023-02-11T14:22:22;14.40;74.90
30001;DHT22;16845;48.670;9.000;2023-02-11T14:24:54;14.40;74.80
30001;DHT22;16845;48.670;9.000;2023-02-11T14:27:39;13.70;76.20
30001;DHT22;16845;48.670;9.000;2023-02-11T14:30:19;13.10;78.80
30001;DHT22;16845;48.670;9.000;2023-02-11T14:35:54;12.40;83.70
30001;DHT22;16845;48.670;9.000;2023-02-11T14:38:27;12.40;85.00
30001;DHT22;16845;48.670;9.000;2023-02-11T14:41:03;12.20;85.50
30001;DHT22;16845;48.670;9.000;2023-02-11T14:43:37;12.20;87.40
30001;DHT22;16845;48.670;9.000;2023-02-11T14:46:05;12.10;87.10
30001;DHT22;16845;48.670;9.000;2023-02-11T14:48:35;12.10;87.50
30001;DHT22;16845;48.670;9.000;2023-02-11T14:51:07;12.20;88.70
30001;DHT22;16845;48.670;9.000;2023-02-11T14:53:40;12.50;88.40
30001;DHT22;16845;48.670;9.000;2023-02-11T14:56:17;12.50;88.60
30001;DHT22;16845;48.670;9.000;2023-02-11T14:58:47;12.60;89.90
30001;DHT22;16845;48.670;9.000;2023-02-11T15:01:27;12.40;90.00
30001;DHT22;16845;48.670;9.000;2023-02-11T15:03:56;12.30;90.50
30001;DHT22;16845;48.670;9.000;2023-02-11T15:06:29;12.30;90.70
30001;DHT22;16845;48.670;9.000;2023-02-11T15:09:00;12.10;90.70
30001;DHT22;16845;48.670;9.000;2023-02-11T15:11:31;12.20;90.90
30001;DHT22;16845;48.670;9.000;2023-02-11T15:14:08;12.30;91.00
30001;DHT22;16845;48.670;9.000;2023-02-11T15:16:40;12.30;90.90
30001;DHT22;16845;48.670;9.000;2023-02-11T15:19:18;12.40;90.70
30001;DHT22;16845;48.670;9.000;2023-02-11T15:21:49;12.40;90.70
30001;DHT22;16845;48.670;9.000;2023-02-11T15:24:24;11.70;91.50
30001;DHT22;16845;48.670;9.000;2023-02-11T15:26:57;11.10;91.80
30001;DHT22;16845;48.670;9.000;2023-02-11T15:29:25;10.60;92.80
30001;DHT22;16845;48.670;9.000;2023-02-11T15:32:03;10.30;94.20
30001;DHT22;16845;48.670;9.000;2023-02-11T15:34:32;10.10;94.40
30001;DHT22;16845;48.670;9.000;2023-02-11T15:37:03;10.00;94.70
30001;DHT22;16845;48.670;9.000;2023-02-11T15:39:33;9.80;95.60
30001;DHT22;16845;48.670;9.000;2023-02-11T15:42:20;9.40;96.20
30001;DHT22;16845;48.670;9.000;2023-02-11T15:44:49;9.20;97.10
30001;DHT22;16845;48.670;9.000;2023-02-11T15:47:34;8.90;98.20
30001;DHT22;16845;48.670;9.000;2023-02-11T15:50:02;8.70;98.10
30001;DHT22;16845;48.670;9.000;2023-02-11T15:52:32;8.50;98.70
30001;DHT22;16845;48.670;9.000;2023-02-11T15:55:01;8.30;99.20
30001;DHT22;16845;48.670;9.000;2023-02-11T15:57:29;8.10;99.50
30001;DHT22;16845;48.670;9.000;2023-02-11T15:59:57;8.00;99.90
30001;DHT22;16845;48.670;9.000;2023-02-11T16:02:31;7.80;99.90
30001;DHT22;16845;48.670;9.000;2023-02-11T16:05:02;7.60;99.90
30001;DHT22;16845;48.670;9.000;2023-02-11T16:07:40;7.40;99.90
30001;DHT22;16845;48.670;9.000;2023-02-11T16:13:01;7.20;99.90
30001;DHT22;16845;48.670;9.000;2023-02-11T16:15:43;6.90;99.90
30001;DHT22;16845;48.670;9.000;2023-02-11T16:18:19;6.80;99.90
30001;DHT22;16845;48.670;9.000;2023-02-11T16:21:03;6.60;99.90
30001;DHT22;16845;48.670;9.000;2023-02-11T16:23:34;6.40;99.90
30001;DHT22;16845;48.670;9.000;2023-02-11T16:26:05;6.30;99.90
30001;DHT22;16845;48.670;9.000;2023-02-11T16:28:35;6.20;99.90
30001;DHT22;16845;48.670;9.000;2023-02-11T16:31:04;6.20;99.90
30001;DHT22;16845;48.670;9.000;2023-02-11T16:33:32;6.00;99.90